sensor_id;sensor_type;location;lat;lon;timestamp;P1;P2;P0
65680;PMS5003;61747;54.966;73.394;2022-09-03T00:01:39;4.25;3.75;0.00
65680;PMS5003;61747;54.966;73.394;2022-09-03T00:04:09;5.75;5.25;0.00
65680;PMS5003;61747;54.966;73.394;2022-09-03T00:06:38;6.00;6.00;0.00
65680;PMS5003;61747;54.966;73.394;2022-09-03T00:09:20;6.00;5.00;2.00
65680;PMS5003;61747;54.966;73.394;2022-09-03T00:12:10;7.25;6.75;2.75
65680;PMS5003;61747;54.966;73.394;2022-09-03T00:14:49;7.50;7.00;1.00
65680;PMS5003;61747;54.966;73.394;2022-09-03T00:17:17;7.75;6.00;2.25
65680;PMS5003;61747;54.966;73.394;2022-09-03T00:22:47;5.25;5.00;0.00
65680;PMS5003;61747;54.966;73.394;2022-09-03T00:25:16;11.50;6.00;1.25
65680;PMS5003;61747;54.966;73.394;2022-09-03T00:27:44;7.00;5.00;1.00
65680;PMS5003;61747;54.966;73.394;2022-09-03T00:30:14;7.50;6.00;2.50
65680;PMS5003;61747;54.966;73.394;2022-09-03T00:35:16;6.00;4.75;0.25
65680;PMS5003;61747;54.966;73.394;2022-09-03T00:37:46;8.00;6.00;2.25
65680;PMS5003;61747;54.966;73.394;2022-09-03T00:53:11;6.50;6.00;1.75
65680;PMS5003;61747;54.966;73.394;2022-09-03T01:00:52;7.25;6.00;2.00
65680;PMS5003;61747;54.966;73.394;2022-09-03T01:03:35;7.25;6.50;1.00
65680;PMS5003;61747;54.966;73.394;2022-09-03T01:06:29;5.00;3.75;1.00
65680;PMS5003;61747;54.966;73.394;2022-09-03T01:14:39;7.25;6.50;2.00
65680;PMS5003;61747;54.966;73.394;2022-09-03T01:17:20;5.00;5.00;1.00
65680;PMS5003;61747;54.966;73.394;2022-09-03T01:20:02;7.00;6.00;3.00
65680;PMS5003;61747;54.966;73.394;2022-09-03T01:31:03;7.00;7.00;2.00
65680;PMS5003;61747;54.966;73.394;2022-09-03T01:33:58;8.00;7.75;2.00
65680;PMS5003;61747;54.966;73.394;2022-09-03T01:39:23;8.00;7.00;3.00
65680;PMS5003;61747;54.966;73.394;2022-09-03T01:42:00;9.00;8.25;3.50
65680;PMS5003;61747;54.966;73.394;2022-09-03T01:52:24;9.00;8.00;2.75
65680;PMS5003;61747;54.966;73.394;2022-09-03T02:02:24;12.00;8.00;4.00
65680;PMS5003;61747;54.966;73.394;2022-09-03T02:05:02;10.00;8.00;4.00
65680;PMS5003;61747;54.966;73.394;2022-09-03T02:07:42;10.00;8.00;4.00
65680;PMS5003;61747;54.966;73.394;2022-09-03T02:10:12;9.00;7.75;3.00
65680;PMS5003;61747;54.966;73.394;2022-09-03T02:12:48;10.50;8.50;3.50
65680;PMS5003;61747;54.966;73.394;2022-09-03T02:15:17;10.00;8.00;3.00
65680;PMS5003;61747;54.966;73.394;2022-09-03T02:17:44;12.00;10.00;5.00
65680;PMS5003;61747;54.966;73.394;2022-09-03T02:20:14;12.00;8.50;4.00
65680;PMS5003;61747;54.966;73.394;2022-09-03T02:22:52;10.25;7.00;5.00
65680;PMS5003;61747;54.966;73.394;2022-09-03T02:25:25;9.00;9.00;4.00
65680;PMS5003;61747;54.966;73.394;2022-09-03T02:28:04;8.00;8.00;4.00
65680;PMS5003;61747;54.966;73.394;2022-09-03T02:30:41;10.00;9.00;3.75
65680;PMS5003;61747;54.966;73.394;2022-09-03T02:33:11;10.00;9.00;4.75
65680;PMS5003;61747;54.966;73.394;2022-09-03T02:35:38;12.67;11.00;5.00
65680;PMS5003;61747;54.966;73.394;2022-09-03T02:38:13;14.00;9.00;4.00
65680;PMS5003;61747;54.966;73.394;2022-09-03T02:40:50;13.00;9.00;4.00
65680;PMS5003;61747;54.966;73.394;2022-09-03T02:43:20;12.00;9.00;3.00
65680;PMS5003;61747;54.966;73.394;2022-09-03T02:45:49;14.00;10.75;4.00
65680;PMS5003;61747;54.966;73.394;2022-09-03T02:48:25;16.00;10.00;4.00
65680;PMS5003;61747;54.966;73.394;2022-09-03T02:50:50;14.00;10.00;4.00
65680;PMS5003;61747;54.966;73.394;2022-09-03T02:53:21;16.00;11.75;5.50
65680;PMS5003;61747;54.966;73.394;2022-09-03T02:55:57;16.00;12.00;5.00
65680;PMS5003;61747;54.966;73.394;2022-09-03T02:58:23;16.50;12.00;4.00
65680;PMS5003;61747;54.966;73.394;2022-09-03T03:00:48;16.33;11.00;6.00
65680;PMS5003;61747;54.966;73.394;2022-09-03T03:03:14;16.33;13.33;7.33
65680;PMS5003;61747;54.966;73.394;2022-09-03T03:08:12;14.50;13.50;5.00
65680;PMS5003;61747;54.966;73.394;2022-09-03T03:10:42;16.75;14.50;6.50
65680;PMS5003;61747;54.966;73.394;2022-09-03T03:13:11;17.00;12.75;5.75
65680;PMS5003;61747;54.966;73.394;2022-09-03T03:15:43;15.00;11.50;6.00
65680;PMS5003;61747;54.966;73.394;2022-09-03T03:18:09;15.00;11.00;5.00
65680;PMS5003;61747;54.966;73.394;2022-09-03T03:20:37;18.00;13.50;6.00
65680;PMS5003;61747;54.966;73.394;2022-09-03T03:23:13;18.25;16.00;7.00
65680;PMS5003;61747;54.966;73.394;2022-09-03T03:25:38;19.00;17.00;8.00
65680;PMS5003;61747;54.966;73.394;2022-09-03T03:28:14;19.00;16.00;7.00
65680;PMS5003;61747;54.966;73.394;2022-09-03T03:30:40;18.00;15.00;7.00
65680;PMS5003;61747;54.966;73.394;2022-09-03T03:33:09;16.75;14.00;6.00
65680;PMS5003;61747;54.966;73.394;2022-09-03T03:35:35;18.00;14.50;7.50
65680;PMS5003;61747;54.966;73.394;2022-09-03T03:38:00;19.00;15.00;7.00
65680;PMS5003;61747;54.966;73.394;2022-09-03T03:40:26;16.00;14.33;6.00
65680;PMS5003;61747;54.966;73.394;2022-09-03T03:42:58;14.00;13.25;4.25
65680;PMS5003;61747;54.966;73.394;2022-09-03T03:45:34;16.75;14.50;6.00
65680;PMS5003;61747;54.966;73.394;2022-09-03T03:48:00;17.25;16.00;6.00
65680;PMS5003;61747;54.966;73.394;2022-09-03T03:50:25;18.00;16.25;6.00
65680;PMS5003;61747;54.966;73.394;2022-09-03T03:53:02;18.00;16.00;6.25
65680;PMS5003;61747;54.966;73.394;2022-09-03T03:55:28;17.33;14.00;5.00
65680;PMS5003;61747;54.966;73.394;2022-09-03T03:57:54;16.00;11.67;6.33
65680;PMS5003;61747;54.966;73.394;2022-09-03T04:00:19;16.00;12.00;7.00
65680;PMS5003;61747;54.966;73.394;2022-09-03T04:02:45;17.00;13.00;7.00
65680;PMS5003;61747;54.966;73.394;2022-09-03T04:05:21;16.00;14.00;5.00
65680;PMS5003;61747;54.966;73.394;2022-09-03T04:07:48;16.00;14.00;6.50
65680;PMS5003;61747;54.966;73.394;2022-09-03T04:10:23;15.50;13.00;6.00
65680;PMS5003;61747;54.966;73.394;2022-09-03T04:12:52;16.00;14.00;6.00
65680;PMS5003;61747;54.966;73.394;2022-09-03T04:15:18;16.00;14.00;6.75
65680;PMS5003;61747;54.966;73.394;2022-09-03T04:17:48;16.00;14.00;5.00
65680;PMS5003;61747;54.966;73.394;2022-09-03T04:20:24;16.00;11.50;6.00
65680;PMS5003;61747;54.966;73.394;2022-09-03T04:22:50;18.00;14.33;8.33
65680;PMS5003;61747;54.966;73.394;2022-09-03T04:25:22;18.00;16.00;8.00
65680;PMS5003;61747;54.966;73.394;2022-09-03T04:27:48;17.00;16.00;7.00
65680;PMS5003;61747;54.966;73.394;2022-09-03T04:30:16;15.00;15.00;6.00
65680;PMS5003;61747;54.966;73.394;2022-09-03T04:32:42;15.00;14.33;6.00
65680;PMS5003;61747;54.966;73.394;2022-09-03T04:35:21;18.00;16.00;7.00
65680;PMS5003;61747;54.966;73.394;2022-09-03T04:37:57;19.00;17.25;7.25
65680;PMS5003;61747;54.966;73.394;2022-09-03T04:40:31;19.00;18.00;9.00
65680;PMS5003;61747;54.966;73.394;2022-09-03T04:43:06;19.00;18.00;6.75
65680;PMS5003;61747;54.966;73.394;2022-09-03T04:45:31;22.00;18.00;8.33
65680;PMS5003;61747;54.966;73.394;2022-09-03T04:48:07;19.00;16.00;6.00
65680;PMS5003;61747;54.966;73.394;2022-09-03T04:50:36;12.25;12.00;4.50
65680;PMS5003;61747;54.966;73.394;2022-09-03T04:53:08;16.00;13.00;6.00
65680;PMS5003;61747;54.966;73.394;2022-09-03T04:55:44;15.00;13.00;5.25
65680;PMS5003;61747;54.966;73.394;2022-09-03T04:58:09;18.00;13.33;5.00
65680;PMS5003;61747;54.966;73.394;2022-09-03T05:00:45;17.00;17.00;6.00
65680;PMS5003;61747;54.966;73.394;2022-09-03T05:03:11;17.00;16.00;7.00
65680;PMS5003;61747;54.966;73.394;2022-09-03T05:05:36;16.67;15.00;7.00
65680;PMS5003;61747;54.966;73.394;2022-09-03T05:08:02;17.00;15.00;6.67
65680;PMS5003;61747;54.966;73.394;2022-09-03T05:10:29;17.00;16.50;7.00
65680;PMS5003;61747;54.966;73.394;2022-09-03T05:13:02;18.00;18.00;6.25
65680;PMS5003;61747;54.966;73.394;2022-09-03T05:15:32;18.00;17.00;8.00
65680;PMS5003;61747;54.966;73.394;2022-09-03T05:18:08;20.00;18.50;10.00
65680;PMS5003;61747;54.966;73.394;2022-09-03T05:20:43;19.00;16.00;8.00
65680;PMS5003;61747;54.966;73.394;2022-09-03T05:23:09;18.00;17.00;7.00
65680;PMS5003;61747;54.966;73.394;2022-09-03T05:25:35;19.33;17.67;9.67
65680;PMS5003;61747;54.966;73.394;2022-09-03T05:28:02;20.00;18.00;9.00
65680;PMS5003;61747;54.966;73.394;2022-09-03T05:30:28;21.00;18.00;8.00
65680;PMS5003;61747;54.966;73.394;2022-09-03T05:32:55;19.75;17.00;7.00
65680;PMS5003;61747;54.966;73.394;2022-09-03T05:35:20;19.75;17.00;9.25
65680;PMS5003;61747;54.966;73.394;2022-09-03T05:37:46;20.00;17.67;9.00
65680;PMS5003;61747;54.966;73.394;2022-09-03T05:40:12;19.00;18.00;8.00
65680;PMS5003;61747;54.966;73.394;2022-09-03T05:42:42;19.00;18.00;8.00
65680;PMS5003;61747;54.966;73.394;2022-09-03T05:45:19;19.25;19.00;8.00
65680;PMS5003;61747;54.966;73.394;2022-09-03T05:47:55;20.50;18.00;8.00
65680;PMS5003;61747;54.966;73.394;2022-09-03T05:50:33;22.25;18.25;8.00
65680;PMS5003;61747;54.966;73.394;2022-09-03T05:53:00;22.50;20.00;9.00
65680;PMS5003;61747;54.966;73.394;2022-09-03T05:55:32;21.00;19.00;10.00
65680;PMS5003;61747;54.966;73.394;2022-09-03T05:57:58;21.50;18.25;9.00
65680;PMS5003;61747;54.966;73.394;2022-09-03T06:00:29;23.00;19.00;9.00
65680;PMS5003;61747;54.966;73.394;2022-09-03T06:02:54;20.00;18.00;8.00
65680;PMS5003;61747;54.966;73.394;2022-09-03T06:05:20;19.00;18.00;8.00
65680;PMS5003;61747;54.966;73.394;2022-09-03T06:07:56;22.50;17.00;7.75
65680;PMS5003;61747;54.966;73.394;2022-09-03T06:10:24;23.75;18.50;9.50
65680;PMS5003;61747;54.966;73.394;2022-09-03T06:12:50;22.25;19.00;11.00
65680;PMS5003;61747;54.966;73.394;2022-09-03T06:15:26;20.00;18.00;9.00
65680;PMS5003;61747;54.966;73.394;2022-09-03T06:18:02;21.25;20.75;9.50
65680;PMS5003;61747;54.966;73.394;2022-09-03T06:20:27;23.00;21.33;11.00
65680;PMS5003;61747;54.966;73.394;2022-09-03T06:22:53;22.00;20.00;9.00
65680;PMS5003;61747;54.966;73.394;2022-09-03T06:25:29;20.50;18.00;10.00
65680;PMS5003;61747;54.966;73.394;2022-09-03T06:28:06;22.00;19.00;12.50
65680;PMS5003;61747;54.966;73.394;2022-09-03T06:30:33;23.00;21.00;13.00
65680;PMS5003;61747;54.966;73.394;2022-09-03T06:33:09;22.00;20.00;13.00
65680;PMS5003;61747;54.966;73.394;2022-09-03T06:35:35;24.75;21.00;12.00
65680;PMS5003;61747;54.966;73.394;2022-09-03T06:38:13;27.00;22.50;12.00
65680;PMS5003;61747;54.966;73.394;2022-09-03T06:40:53;26.00;23.00;13.00
65680;PMS5003;61747;54.966;73.394;2022-09-03T06:43:19;25.00;23.00;14.00
65680;PMS5003;61747;54.966;73.394;2022-09-03T06:45:58;25.00;23.00;14.00
65680;PMS5003;61747;54.966;73.394;2022-09-03T06:48:24;22.00;20.00;14.00
65680;PMS5003;61747;54.966;73.394;2022-09-03T06:51:01;24.00;22.00;15.00
65680;PMS5003;61747;54.966;73.394;2022-09-03T06:53:32;24.00;22.00;15.00
65680;PMS5003;61747;54.966;73.394;2022-09-03T06:55:59;22.00;20.75;15.00
65680;PMS5003;61747;54.966;73.394;2022-09-03T06:58:37;24.00;21.50;14.00
65680;PMS5003;61747;54.966;73.394;2022-09-03T07:01:20;23.00;20.00;13.00
65680;PMS5003;61747;54.966;73.394;2022-09-03T07:03:56;22.00;19.50;12.00
65680;PMS5003;61747;54.966;73.394;2022-09-03T07:06:24;23.00;21.00;9.00
65680;PMS5003;61747;54.966;73.394;2022-09-03T07:08:50;25.00;21.00;12.50
65680;PMS5003;61747;54.966;73.394;2022-09-03T07:11:17;26.00;22.00;12.00
65680;PMS5003;61747;54.966;73.394;2022-09-03T07:13:45;24.25;21.00;10.75
65680;PMS5003;61747;54.966;73.394;2022-09-03T07:16:20;20.25;20.00;11.00
65680;PMS5003;61747;54.966;73.394;2022-09-03T07:18:46;22.00;19.75;9.00
65680;PMS5003;61747;54.966;73.394;2022-09-03T07:21:13;25.00;20.00;9.00
65680;PMS5003;61747;54.966;73.394;2022-09-03T07:23:40;21.00;19.00;9.00
65680;PMS5003;61747;54.966;73.394;2022-09-03T07:26:13;23.00;20.00;10.00
65680;PMS5003;61747;54.966;73.394;2022-09-03T07:28:39;20.00;19.00;10.00
65680;PMS5003;61747;54.966;73.394;2022-09-03T07:33:33;18.00;17.00;8.33
65680;PMS5003;61747;54.966;73.394;2022-09-03T07:36:04;19.00;18.00;10.00
65680;PMS5003;61747;54.966;73.394;2022-09-03T07:38:41;19.00;19.00;9.75
65680;PMS5003;61747;54.966;73.394;2022-09-03T07:41:11;18.00;17.00;9.00
65680;PMS5003;61747;54.966;73.394;2022-09-03T07:43:38;21.00;16.75;8.25
65680;PMS5003;61747;54.966;73.394;2022-09-03T07:46:17;19.25;16.25;9.25
65680;PMS5003;61747;54.966;73.394;2022-09-03T07:48:49;18.75;17.00;9.00
65680;PMS5003;61747;54.966;73.394;2022-09-03T07:51:25;20.00;18.00;8.50
65680;PMS5003;61747;54.966;73.394;2022-09-03T07:53:59;20.00;16.00;8.00
65680;PMS5003;61747;54.966;73.394;2022-09-03T07:56:35;20.00;15.00;9.00
65680;PMS5003;61747;54.966;73.394;2022-09-03T07:59:09;19.00;15.00;7.00
65680;PMS5003;61747;54.966;73.394;2022-09-03T08:01:36;17.00;14.00;6.00
65680;PMS5003;61747;54.966;73.394;2022-09-03T08:04:05;16.00;14.00;7.00
65680;PMS5003;61747;54.966;73.394;2022-09-03T08:06:41;19.00;16.00;8.00
65680;PMS5003;61747;54.966;73.394;2022-09-03T08:09:07;18.00;14.00;6.00
65680;PMS5003;61747;54.966;73.394;2022-09-03T08:11:37;19.00;17.00;9.00
65680;PMS5003;61747;54.966;73.394;2022-09-03T08:14:14;23.00;20.00;9.00
65680;PMS5003;61747;54.966;73.394;2022-09-03T08:16:42;18.00;18.00;7.00
65680;PMS5003;61747;54.966;73.394;2022-09-03T08:19:08;19.00;17.50;8.00
65680;PMS5003;61747;54.966;73.394;2022-09-03T08:21:35;19.50;17.00;8.00
65680;PMS5003;61747;54.966;73.394;2022-09-03T08:24:01;20.00;18.00;8.00
65680;PMS5003;61747;54.966;73.394;2022-09-03T08:26:39;20.00;18.00;9.00
65680;PMS5003;61747;54.966;73.394;2022-09-03T08:29:06;22.75;20.50;11.00
65680;PMS5003;61747;54.966;73.394;2022-09-03T08:31:32;25.00;21.00;11.00
65680;PMS5003;61747;54.966;73.394;2022-09-03T08:33:59;22.50;21.00;11.50
65680;PMS5003;61747;54.966;73.394;2022-09-03T08:36:32;22.75;20.50;12.00
65680;PMS5003;61747;54.966;73.394;2022-09-03T08:39:09;25.25;22.00;13.00
65680;PMS5003;61747;54.966;73.394;2022-09-03T08:41:45;27.75;25.25;16.25
65680;PMS5003;61747;54.966;73.394;2022-09-03T08:44:23;26.50;25.00;17.00
65680;PMS5003;61747;54.966;73.394;2022-09-03T08:47:09;28.50;26.50;16.00
65680;PMS5003;61747;54.966;73.394;2022-09-03T08:49:51;31.00;30.00;17.75
65680;PMS5003;61747;54.966;73.394;2022-09-03T08:52:30;30.50;28.00;18.00
65680;PMS5003;61747;54.966;73.394;2022-09-03T08:57:30;25.00;23.00;17.00
65680;PMS5003;61747;54.966;73.394;2022-09-03T08:59:57;22.00;21.00;13.00
65680;PMS5003;61747;54.966;73.394;2022-09-03T09:02:39;22.00;20.00;11.75
65680;PMS5003;61747;54.966;73.394;2022-09-03T09:05:21;20.75;19.00;9.00
65680;PMS5003;61747;54.966;73.394;2022-09-03T09:07:50;22.50;19.00;8.00
65680;PMS5003;61747;54.966;73.394;2022-09-03T09:12:50;20.00;19.00;10.00
65680;PMS5003;61747;54.966;73.394;2022-09-03T09:15:33;20.50;18.00;9.00
65680;PMS5003;61747;54.966;73.394;2022-09-03T09:20:50;21.00;19.00;9.00
65680;PMS5003;61747;54.966;73.394;2022-09-03T09:23:24;21.00;19.00;10.00
65680;PMS5003;61747;54.966;73.394;2022-09-03T09:25:52;21.25;20.25;12.00
65680;PMS5003;61747;54.966;73.394;2022-09-03T09:28:19;21.50;20.00;11.00
65680;PMS5003;61747;54.966;73.394;2022-09-03T09:30:46;24.00;21.00;11.00
65680;PMS5003;61747;54.966;73.394;2022-09-03T09:33:15;23.50;21.25;12.00
65680;PMS5003;61747;54.966;73.394;2022-09-03T09:35:42;21.75;21.00;10.00
65680;PMS5003;61747;54.966;73.394;2022-09-03T09:38:27;21.00;20.00;11.00
65680;PMS5003;61747;54.966;73.394;2022-09-03T09:40:55;20.75;18.75;9.00
65680;PMS5003;61747;54.966;73.394;2022-09-03T09:43:24;22.00;16.75;9.00
65680;PMS5003;61747;54.966;73.394;2022-09-03T09:45:50;20.00;17.00;9.00
65680;PMS5003;61747;54.966;73.394;2022-09-03T09:48:21;20.75;17.00;7.50
65680;PMS5003;61747;54.966;73.394;2022-09-03T09:50:47;19.75;17.25;8.00
65680;PMS5003;61747;54.966;73.394;2022-09-03T09:53:18;18.00;17.00;8.00
65680;PMS5003;61747;54.966;73.394;2022-09-03T09:55:52;23.00;20.75;10.25
65680;PMS5003;61747;54.966;73.394;2022-09-03T09:58:19;22.75;19.00;12.00
65680;PMS5003;61747;54.966;73.394;2022-09-03T10:00:56;22.00;21.00;10.25
65680;PMS5003;61747;54.966;73.394;2022-09-03T10:03:23;23.00;22.50;10.00
65680;PMS5003;61747;54.966;73.394;2022-09-03T10:06:04;23.00;21.75;12.00
65680;PMS5003;61747;54.966;73.394;2022-09-03T10:09:09;21.00;19.00;9.00
65680;PMS5003;61747;54.966;73.394;2022-09-03T10:14:31;19.00;19.00;7.50
65680;PMS5003;61747;54.966;73.394;2022-09-03T10:17:23;19.00;17.25;9.00
65680;PMS5003;61747;54.966;73.394;2022-09-03T10:22:56;20.00;18.00;8.25
65680;PMS5003;61747;54.966;73.394;2022-09-03T10:25:25;22.75;19.00;9.25
65680;PMS5003;61747;54.966;73.394;2022-09-03T10:27:51;19.00;19.00;9.00
65680;PMS5003;61747;54.966;73.394;2022-09-03T10:30:21;18.00;18.00;8.00
65680;PMS5003;61747;54.966;73.394;2022-09-03T10:35:42;18.75;17.00;8.50
65680;PMS5003;61747;54.966;73.394;2022-09-03T10:46:14;26.00;23.00;16.00
65680;PMS5003;61747;54.966;73.394;2022-09-03T10:51:32;24.25;20.50;15.00
65680;PMS5003;61747;54.966;73.394;2022-09-03T10:56:37;26.00;23.00;13.00
65680;PMS5003;61747;54.966;73.394;2022-09-03T11:12:01;33.00;29.00;17.00
65680;PMS5003;61747;54.966;73.394;2022-09-03T11:17:24;36.25;30.75;19.50
65680;PMS5003;61747;54.966;73.394;2022-09-03T11:22:33;40.00;32.25;22.00
65680;PMS5003;61747;54.966;73.394;2022-09-03T11:24:59;39.00;33.75;22.00
65680;PMS5003;61747;54.966;73.394;2022-09-03T11:30:12;37.75;32.00;22.00
65680;PMS5003;61747;54.966;73.394;2022-09-03T11:35:15;37.00;31.00;21.00
65680;PMS5003;61747;54.966;73.394;2022-09-03T11:37:59;34.00;30.00;20.00
65680;PMS5003;61747;54.966;73.394;2022-09-03T11:40:34;38.75;29.50;19.00
65680;PMS5003;61747;54.966;73.394;2022-09-03T11:43:23;34.00;29.00;19.00
65680;PMS5003;61747;54.966;73.394;2022-09-03T11:48:44;28.00;27.00;18.00
65680;PMS5003;61747;54.966;73.394;2022-09-03T11:53:55;28.50;27.00;16.00
65680;PMS5003;61747;54.966;73.394;2022-09-03T11:56:27;29.50;26.25;16.00
65680;PMS5003;61747;54.966;73.394;2022-09-03T11:59:01;30.00;28.00;17.00
65680;PMS5003;61747;54.966;73.394;2022-09-03T12:01:28;28.00;25.00;17.00
65680;PMS5003;61747;54.966;73.394;2022-09-03T12:04:00;27.75;24.00;17.00
65680;PMS5003;61747;54.966;73.394;2022-09-03T12:06:33;27.25;24.75;17.25
65680;PMS5003;61747;54.966;73.394;2022-09-03T12:09:18;29.75;27.00;19.00
65680;PMS5003;61747;54.966;73.394;2022-09-03T12:14:36;34.00;29.00;19.00
65680;PMS5003;61747;54.966;73.394;2022-09-03T12:22:20;33.75;29.75;19.00
65680;PMS5003;61747;54.966;73.394;2022-09-03T12:24:46;30.75;29.75;19.00
65680;PMS5003;61747;54.966;73.394;2022-09-03T12:27:19;28.00;26.50;19.00
65680;PMS5003;61747;54.966;73.394;2022-09-03T12:29:57;24.50;23.00;17.75
65680;PMS5003;61747;54.966;73.394;2022-09-03T12:32:33;28.00;25.00;17.00
65680;PMS5003;61747;54.966;73.394;2022-09-03T12:35:12;27.50;25.00;17.50
65680;PMS5003;61747;54.966;73.394;2022-09-03T12:37:39;26.00;23.00;16.00
65680;PMS5003;61747;54.966;73.394;2022-09-03T12:42:46;28.25;24.00;16.00
65680;PMS5003;61747;54.966;73.394;2022-09-03T12:45:22;28.75;24.00;16.00
65680;PMS5003;61747;54.966;73.394;2022-09-03T12:47:53;28.75;27.00;18.00
65680;PMS5003;61747;54.966;73.394;2022-09-03T12:50:20;30.00;28.00;18.00
65680;PMS5003;61747;54.966;73.394;2022-09-03T12:52:51;32.00;29.00;18.00
65680;PMS5003;61747;54.966;73.394;2022-09-03T12:55:33;29.00;28.00;17.50
65680;PMS5003;61747;54.966;73.394;2022-09-03T12:58:02;33.75;29.00;19.00
65680;PMS5003;61747;54.966;73.394;2022-09-03T13:00:35;33.00;29.00;19.00
65680;PMS5003;61747;54.966;73.394;2022-09-03T13:03:03;30.00;29.00;18.00
65680;PMS5003;61747;54.966;73.394;2022-09-03T13:07:56;33.00;28.00;18.33
65680;PMS5003;61747;54.966;73.394;2022-09-03T13:10:28;34.25;29.00;18.00
65680;PMS5003;61747;54.966;73.394;2022-09-03T13:12:58;34.50;29.75;18.75
65680;PMS5003;61747;54.966;73.394;2022-09-03T13:15:25;39.00;32.00;20.00
65680;PMS5003;61747;54.966;73.394;2022-09-03T13:18:17;38.00;31.00;19.00
65680;PMS5003;61747;54.966;73.394;2022-09-03T13:23:27;34.25;29.50;19.00
65680;PMS5003;61747;54.966;73.394;2022-09-03T13:34:00;33.00;29.00;18.00
65680;PMS5003;61747;54.966;73.394;2022-09-03T13:39:21;34.75;29.00;17.25
65680;PMS5003;61747;54.966;73.394;2022-09-03T13:42:05;30.00;28.00;18.00
65680;PMS5003;61747;54.966;73.394;2022-09-03T13:44:43;30.75;29.00;18.50
65680;PMS5003;61747;54.966;73.394;2022-09-03T13:47:28;33.50;29.50;19.00
65680;PMS5003;61747;54.966;73.394;2022-09-03T13:50:18;40.00;32.50;20.25
65680;PMS5003;61747;54.966;73.394;2022-09-03T13:53:08;39.50;32.00;20.00
65680;PMS5003;61747;54.966;73.394;2022-09-03T13:55:54;38.25;33.00;20.00
65680;PMS5003;61747;54.966;73.394;2022-09-03T13:58:26;33.00;29.00;18.00
65680;PMS5003;61747;54.966;73.394;2022-09-03T14:03:36;36.75;29.75;19.75
65680;PMS5003;61747;54.966;73.394;2022-09-03T14:06:17;38.00;32.00;20.00
65680;PMS5003;61747;54.966;73.394;2022-09-03T14:13:57;37.00;31.00;19.00
65680;PMS5003;61747;54.966;73.394;2022-09-03T14:21:33;36.67;31.00;19.00
65680;PMS5003;61747;54.966;73.394;2022-09-03T14:24:05;32.25;28.25;19.00
65680;PMS5003;61747;54.966;73.394;2022-09-03T14:26:35;32.50;29.00;18.00
65680;PMS5003;61747;54.966;73.394;2022-09-03T14:29:13;34.00;30.00;19.00
65680;PMS5003;61747;54.966;73.394;2022-09-03T14:34:32;36.00;28.25;19.00
65680;PMS5003;61747;54.966;73.394;2022-09-03T14:39:54;35.00;29.00;20.00
65680;PMS5003;61747;54.966;73.394;2022-09-03T14:42:23;35.00;29.00;19.50
65680;PMS5003;61747;54.966;73.394;2022-09-03T14:47:55;33.00;28.75;19.00
65680;PMS5003;61747;54.966;73.394;2022-09-03T14:50:41;30.00;26.75;18.00
65680;PMS5003;61747;54.966;73.394;2022-09-03T14:56:08;29.00;26.00;16.25
65680;PMS5003;61747;54.966;73.394;2022-09-03T15:01:34;31.00;27.50;18.00
65680;PMS5003;61747;54.966;73.394;2022-09-03T15:09:41;27.50;26.00;18.00
65680;PMS5003;61747;54.966;73.394;2022-09-03T15:12:16;27.50;24.00;17.00
65680;PMS5003;61747;54.966;73.394;2022-09-03T15:14:56;25.50;20.25;14.25
65680;PMS5003;61747;54.966;73.394;2022-09-03T15:22:57;25.75;23.00;14.00
65680;PMS5003;61747;54.966;73.394;2022-09-03T15:36:38;21.75;19.25;10.00
65680;PMS5003;61747;54.966;73.394;2022-09-03T15:39:19;23.25;20.00;10.50
65680;PMS5003;61747;54.966;73.394;2022-09-03T15:41:58;20.75;18.00;11.50
65680;PMS5003;61747;54.966;73.394;2022-09-03T15:44:27;17.00;16.50;7.50
65680;PMS5003;61747;54.966;73.394;2022-09-03T15:47:00;20.00;18.25;10.00
65680;PMS5003;61747;54.966;73.394;2022-09-03T15:55:13;20.00;17.00;9.00
65680;PMS5003;61747;54.966;73.394;2022-09-03T16:00:06;18.00;16.00;7.00
65680;PMS5003;61747;54.966;73.394;2022-09-03T16:02:39;16.25;14.00;6.00
65680;PMS5003;61747;54.966;73.394;2022-09-03T16:05:52;21.00;18.00;8.00
65680;PMS5003;61747;54.966;73.394;2022-09-03T16:15:48;19.75;16.00;7.00
65680;PMS5003;61747;54.966;73.394;2022-09-03T16:18:22;21.00;16.50;7.75
65680;PMS5003;61747;54.966;73.394;2022-09-03T16:20:55;21.00;19.00;9.00
65680;PMS5003;61747;54.966;73.394;2022-09-03T16:23:40;20.00;18.00;8.00
65680;PMS5003;61747;54.966;73.394;2022-09-03T16:26:12;18.25;18.00;8.00
65680;PMS5003;61747;54.966;73.394;2022-09-03T16:39:20;18.75;17.00;9.50
65680;PMS5003;61747;54.966;73.394;2022-09-03T16:59:40;21.00;16.00;9.00
65680;PMS5003;61747;54.966;73.394;2022-09-03T17:15:43;23.00;22.00;12.50
65680;PMS5003;61747;54.966;73.394;2022-09-03T17:21:07;21.00;19.75;12.00
65680;PMS5003;61747;54.966;73.394;2022-09-03T17:45:00;22.00;21.00;11.00
65680;PMS5003;61747;54.966;73.394;2022-09-03T17:50:17;22.00;21.00;12.25
65680;PMS5003;61747;54.966;73.394;2022-09-03T17:52:51;20.00;20.00;11.00
65680;PMS5003;61747;54.966;73.394;2022-09-03T17:55:35;22.75;22.25;12.00
65680;PMS5003;61747;54.966;73.394;2022-09-03T17:58:16;23.00;22.00;10.00
65680;PMS5003;61747;54.966;73.394;2022-09-03T18:06:05;26.00;23.00;11.25
65680;PMS5003;61747;54.966;73.394;2022-09-03T18:08:42;26.75;22.00;13.00
65680;PMS5003;61747;54.966;73.394;2022-09-03T18:13:53;29.75;25.75;16.00
65680;PMS5003;61747;54.966;73.394;2022-09-03T18:18:52;33.67;31.00;19.00
65680;PMS5003;61747;54.966;73.394;2022-09-03T18:21:34;32.00;30.00;19.00
65680;PMS5003;61747;54.966;73.394;2022-09-03T18:24:39;32.25;29.25;19.00
65680;PMS5003;61747;54.966;73.394;2022-09-03T18:30:55;34.25;31.00;20.00
65680;PMS5003;61747;54.966;73.394;2022-09-03T18:33:39;33.50;30.75;19.00
65680;PMS5003;61747;54.966;73.394;2022-09-03T18:36:24;40.00;33.75;22.00
65680;PMS5003;61747;54.966;73.394;2022-09-03T18:39:15;49.50;39.00;26.00
65680;PMS5003;61747;54.966;73.394;2022-09-03T18:42:26;55.75;44.25;29.00
65680;PMS5003;61747;54.966;73.394;2022-09-03T18:48:18;59.75;48.00;32.00
65680;PMS5003;61747;54.966;73.394;2022-09-03T18:56:51;49.25;38.50;25.00
65680;PMS5003;61747;54.966;73.394;2022-09-03T19:08:21;14.75;12.75;5.00
65680;PMS5003;61747;54.966;73.394;2022-09-03T19:11:18;11.00;9.50;4.00
65680;PMS5003;61747;54.966;73.394;2022-09-03T19:14:06;10.00;8.50;3.00
65680;PMS5003;61747;54.966;73.394;2022-09-03T19:17:05;13.00;8.00;2.00
65680;PMS5003;61747;54.966;73.394;2022-09-03T19:20:02;6.75;6.00;3.00
65680;PMS5003;61747;54.966;73.394;2022-09-03T19:22:48;8.00;8.00;3.00
65680;PMS5003;61747;54.966;73.394;2022-09-03T19:25:32;11.00;6.50;4.00
65680;PMS5003;61747;54.966;73.394;2022-09-03T19:28:20;8.25;5.75;1.00
65680;PMS5003;61747;54.966;73.394;2022-09-03T19:37:10;7.75;5.50;2.00